createdAt,value
2019-01-13T00:00:42.440Z,18.50
2019-01-13T00:03:11.074Z,18.10
2019-01-13T00:05:39.581Z,18.20
2019-01-13T00:08:08.255Z,18.20
2019-01-13T00:10:36.903Z,18.80
2019-01-13T00:13:05.542Z,19.10
2019-01-13T00:15:34.328Z,18.80
2019-01-13T00:18:02.909Z,18.90
2019-01-13T00:20:31.526Z,18.70
2019-01-13T00:23:00.210Z,18.50
2019-01-13T00:25:28.966Z,17.80
2019-01-13T00:27:57.603Z,18.30
2019-01-13T00:30:26.285Z,18.40
2019-01-13T00:32:54.916Z,18.70
2019-01-13T00:35:23.550Z,18.40
2019-01-13T00:37:53.090Z,18.90
2019-01-13T00:40:21.720Z,19.60
2019-01-13T00:42:50.293Z,18.90
2019-01-13T00:45:18.910Z,19.00
2019-01-13T00:47:47.475Z,19.10
2019-01-13T00:50:16.418Z,18.80
2019-01-13T00:52:45.112Z,18.70
2019-01-13T00:55:15.152Z,19.00
2019-01-13T00:57:43.791Z,18.80
2019-01-13T01:00:26.705Z,18.70
2019-01-13T01:02:53.993Z,18.80
2019-01-13T01:05:22.553Z,18.60
2019-01-13T01:07:51.750Z,18.90
2019-01-13T01:10:20.614Z,19.50
2019-01-13T01:12:49.180Z,19.10
2019-01-13T01:15:17.797Z,18.40
2019-01-13T01:17:46.436Z,19.90
2019-01-13T01:20:16.219Z,19.60
2019-01-13T01:22:44.810Z,19.70
2019-01-13T01:25:15.474Z,19.90
2019-01-13T01:27:44.040Z,20.90
2019-01-13T01:30:15.312Z,21.10
2019-01-13T01:32:43.955Z,20.60
2019-01-13T01:35:12.513Z,20.50
2019-01-13T01:37:41.139Z,20.80
2019-01-13T01:40:15.765Z,20.60
2019-01-13T01:42:44.394Z,20.00
2019-01-13T01:45:14.055Z,19.50
2019-01-13T01:47:42.689Z,19.30
2019-01-13T01:50:12.698Z,18.90
2019-01-13T01:52:41.181Z,18.70
2019-01-13T01:55:12.127Z,18.40
2019-01-13T01:57:40.725Z,19.00
2019-01-13T02:00:14.938Z,19.30
2019-01-13T02:02:43.425Z,19.20
2019-01-13T02:05:12.035Z,19.10
2019-01-13T02:07:40.602Z,18.80
2019-01-13T02:10:19.680Z,18.10
2019-01-13T02:12:48.251Z,17.90
2019-01-13T02:15:19.648Z,17.90
2019-01-13T02:17:48.263Z,17.70
2019-01-13T02:20:18.331Z,17.80
2019-01-13T02:22:46.964Z,17.90
2019-01-13T02:25:17.877Z,17.80
2019-01-13T02:27:46.518Z,17.70
2019-01-13T02:30:20.524Z,18.40
2019-01-13T02:32:49.133Z,18.50
2019-01-13T02:35:17.628Z,18.00
2019-01-13T02:37:46.200Z,17.70
2019-01-13T02:40:16.882Z,18.10
2019-01-13T02:42:45.874Z,17.90
2019-01-13T02:45:19.561Z,18.10
2019-01-13T02:47:48.247Z,19.30
2019-01-13T02:50:16.898Z,19.00
2019-01-13T02:52:45.387Z,18.60
2019-01-13T02:55:13.917Z,18.80
2019-01-13T02:57:42.407Z,18.60
2019-01-13T03:00:22.637Z,18.30
2019-01-13T03:02:51.284Z,19.00
2019-01-13T03:07:48.132Z,19.00
2019-01-13T03:10:18.727Z,17.60
2019-01-13T03:12:47.270Z,18.30
2019-01-13T03:15:20.389Z,18.50
2019-01-13T03:17:49.150Z,18.80
2019-01-13T03:20:17.832Z,19.70
2019-01-13T03:22:46.383Z,20.80
2019-01-13T03:25:16.825Z,20.50
2019-01-13T03:27:45.460Z,21.00
2019-01-13T03:30:16.646Z,20.00
2019-01-13T03:32:45.142Z,20.80
2019-01-13T03:35:14.005Z,21.00
2019-01-13T03:37:42.620Z,21.00
2019-01-13T03:40:14.331Z,21.90
2019-01-13T03:42:42.900Z,20.10
2019-01-13T03:45:11.584Z,20.00
2019-01-13T03:47:40.210Z,19.80
2019-01-13T03:50:14.727Z,19.90
2019-01-13T03:52:43.772Z,20.00
2019-01-13T03:55:12.509Z,19.70
2019-01-13T03:57:41.089Z,19.60
2019-01-13T04:00:23.702Z,19.60
2019-01-13T04:02:52.276Z,19.30
2019-01-13T04:05:20.844Z,19.10
2019-01-13T04:07:49.451Z,19.30
2019-01-13T04:10:18.231Z,19.00
2019-01-13T04:12:46.798Z,18.60
2019-01-13T04:15:18.527Z,18.60
2019-01-13T04:17:47.092Z,19.30
2019-01-13T04:20:15.670Z,19.70
2019-01-13T04:22:44.682Z,20.00
2019-01-13T04:25:13.258Z,20.00
2019-01-13T04:27:41.824Z,19.50
2019-01-13T04:30:12.592Z,19.00
2019-01-13T04:32:41.160Z,19.30
2019-01-13T04:35:09.742Z,19.80
2019-01-13T04:37:38.422Z,20.30
2019-01-13T04:40:11.385Z,19.90
2019-01-13T04:42:39.956Z,19.40
2019-01-13T04:45:09.764Z,19.30
2019-01-13T04:47:38.328Z,19.80
2019-01-13T04:50:14.687Z,19.40
2019-01-13T04:52:43.174Z,19.60
2019-01-13T04:55:11.773Z,20.80
2019-01-13T04:57:40.376Z,21.50
2019-01-13T05:00:19.852Z,21.80
2019-01-13T05:02:48.460Z,22.50
2019-01-13T05:05:17.024Z,22.00
2019-01-13T05:07:45.518Z,21.90
2019-01-13T05:10:21.301Z,20.90
2019-01-13T05:12:50.293Z,20.30
2019-01-13T05:15:18.879Z,20.20
2019-01-13T05:17:47.489Z,20.30
2019-01-13T05:20:17.861Z,20.90
2019-01-13T05:22:46.428Z,21.50
2019-01-13T05:25:15.037Z,21.70
2019-01-13T05:27:43.527Z,21.50
2019-01-13T05:30:14.602Z,22.30
2019-01-13T05:32:43.201Z,22.50
2019-01-13T05:35:11.778Z,22.20
2019-01-13T05:37:40.286Z,22.00
2019-01-13T05:40:11.959Z,21.80
2019-01-13T05:42:40.460Z,21.80
2019-01-13T05:45:11.404Z,22.30
2019-01-13T05:47:40.075Z,21.80
2019-01-13T05:50:11.059Z,22.20
2019-01-13T05:52:40.691Z,22.30
2019-01-13T05:55:09.308Z,21.70
2019-01-13T05:57:37.805Z,21.30
2019-01-13T06:00:20.893Z,21.20
2019-01-13T06:02:49.873Z,21.50
2019-01-13T06:05:18.515Z,21.30
2019-01-13T06:07:47.134Z,21.00
2019-01-13T06:10:18.818Z,21.30
2019-01-13T06:12:47.388Z,21.20
2019-01-13T06:17:48.239Z,20.90
2019-01-13T06:20:18.701Z,21.10
2019-01-13T06:22:47.723Z,20.30
2019-01-13T06:25:16.296Z,19.90
2019-01-13T06:27:44.803Z,19.60
2019-01-13T06:30:15.794Z,19.20
2019-01-13T06:32:44.368Z,19.70
2019-01-13T06:35:12.939Z,19.70
2019-01-13T06:37:41.475Z,19.40
2019-01-13T06:40:15.404Z,19.80
2019-01-13T06:42:44.082Z,20.10
2019-01-13T06:45:22.795Z,20.40
2019-01-13T06:47:51.405Z,21.30
2019-01-13T06:50:19.971Z,21.20
2019-01-13T06:52:48.533Z,21.00
2019-01-13T06:55:17.149Z,21.30
2019-01-13T06:57:45.712Z,20.80
2019-01-13T07:00:22.350Z,20.40
2019-01-13T07:02:50.853Z,20.70
2019-01-13T07:05:19.420Z,20.00
2019-01-13T07:07:48.097Z,20.10
2019-01-13T07:10:16.667Z,19.70
2019-01-13T07:12:45.331Z,19.30
2019-01-13T07:15:18.466Z,19.60
2019-01-13T07:17:46.957Z,19.20
2019-01-13T07:20:17.236Z,19.40
2019-01-13T07:25:14.126Z,19.70
2019-01-13T07:27:42.709Z,18.90
2019-01-13T07:30:14.288Z,18.80
2019-01-13T07:32:42.936Z,20.20
2019-01-13T07:35:11.589Z,19.70
2019-01-13T07:37:40.196Z,19.20
2019-01-13T07:40:14.381Z,19.60
2019-01-13T07:45:13.524Z,19.30
2019-01-13T07:50:12.918Z,20.10
2019-01-13T07:52:41.493Z,19.10
2019-01-13T07:55:12.769Z,19.30
2019-01-13T07:57:41.460Z,18.10
2019-01-13T08:00:19.634Z,18.30
2019-01-13T08:02:48.336Z,18.00
2019-01-13T08:05:16.961Z,18.20
2019-01-13T08:10:16.575Z,18.30
2019-01-13T08:12:45.143Z,18.70
2019-01-13T08:17:43.716Z,18.80
2019-01-13T08:20:15.438Z,18.80
2019-01-13T08:22:44.077Z,18.70
2019-01-13T08:25:12.617Z,19.50
2019-01-13T08:27:41.259Z,18.20
2019-01-13T08:32:39.823Z,18.70
2019-01-13T08:35:08.393Z,18.20
2019-01-13T08:37:36.960Z,17.80
2019-01-13T08:45:04.801Z,17.20
2019-01-13T08:47:33.423Z,17.40
2019-01-13T08:50:02.058Z,17.90
2019-01-13T08:52:30.625Z,18.20
2019-01-13T08:54:59.310Z,19.40
2019-01-13T09:02:24.652Z,18.20
2019-01-13T09:04:53.290Z,17.70
2019-01-13T09:07:22.343Z,17.50
2019-01-13T09:14:47.537Z,19.00
2019-01-13T09:17:16.210Z,18.70
2019-01-13T09:22:13.057Z,18.80
2019-01-13T09:24:41.588Z,18.60
2019-01-13T09:27:10.177Z,18.70
2019-01-13T09:29:42.437Z,18.80
2019-01-13T09:32:09.001Z,17.90
2019-01-13T09:37:05.907Z,17.50
2019-01-13T09:39:34.593Z,17.60
2019-01-13T09:42:03.190Z,17.90
2019-01-13T09:44:31.845Z,17.80
2019-01-13T09:47:00.531Z,17.80
2019-01-13T09:51:57.363Z,18.70
2019-01-13T09:54:25.955Z,18.20
2019-01-13T09:56:54.595Z,17.00
2019-01-13T09:59:23.094Z,17.00
2019-01-13T10:01:51.771Z,17.20
2019-01-13T10:06:48.687Z,17.30
2019-01-13T10:09:17.368Z,16.90
2019-01-13T10:11:45.954Z,16.40
2019-01-13T10:14:14.576Z,16.70
2019-01-13T10:16:43.257Z,16.70
2019-01-13T10:21:40.092Z,16.50
2019-01-13T10:24:08.706Z,16.60
2019-01-13T10:26:37.285Z,16.70
2019-01-13T10:29:05.792Z,16.60
2019-01-13T10:31:34.470Z,16.20
2019-01-13T10:34:02.980Z,16.70
2019-01-13T10:36:31.545Z,17.30
2019-01-13T10:39:00.151Z,17.00
2019-01-13T10:41:28.662Z,16.50
2019-01-13T10:46:25.534Z,16.70
2019-01-13T10:51:22.298Z,16.70
2019-01-13T10:53:50.937Z,17.00
2019-01-13T10:56:20.505Z,17.00
2019-01-13T11:01:17.394Z,16.90
2019-01-13T11:06:14.405Z,16.40
2019-01-13T11:11:11.234Z,16.50
2019-01-13T11:13:39.768Z,16.20
2019-01-13T11:16:08.335Z,17.10
2019-01-13T11:18:36.908Z,17.40
2019-01-13T11:26:02.382Z,17.90
2019-01-13T11:28:31.095Z,16.70
2019-01-13T11:30:59.734Z,16.50
2019-01-13T11:33:28.388Z,16.70
2019-01-13T11:35:57.082Z,16.90
2019-01-13T11:38:25.674Z,16.60
2019-01-13T11:40:54.163Z,16.50
2019-01-13T11:50:48.171Z,16.90
2019-01-13T11:53:16.774Z,16.80
2019-01-13T11:55:45.362Z,16.60
2019-01-13T11:58:15.794Z,16.50
2019-01-13T12:00:44.176Z,16.50
2019-01-13T12:05:42.612Z,16.70
2019-01-13T12:08:11.248Z,16.60
2019-01-13T12:13:08.135Z,16.80
2019-01-13T12:20:33.477Z,16.90
2019-01-13T12:23:02.129Z,17.00
2019-01-13T12:27:59.076Z,17.10
2019-01-13T12:30:29.605Z,17.10
2019-01-13T12:32:58.546Z,16.70
2019-01-13T12:35:27.224Z,16.60
2019-01-13T12:37:55.858Z,16.30
2019-01-13T12:45:23.235Z,16.40
2019-01-13T12:50:22.058Z,16.60
2019-01-13T12:55:19.046Z,15.80
2019-01-13T12:57:47.726Z,16.20
2019-01-13T13:00:17.758Z,15.80
2019-01-13T13:02:46.509Z,15.40
2019-01-13T13:10:21.792Z,15.80
2019-01-13T13:12:50.369Z,16.00
2019-01-13T13:15:19.036Z,16.00
2019-01-13T13:17:47.610Z,15.90
2019-01-13T13:20:16.659Z,15.80
2019-01-13T13:22:45.434Z,15.90
2019-01-13T13:30:27.337Z,15.90
2019-01-13T13:35:24.611Z,16.00
2019-01-13T13:37:53.315Z,15.60
2019-01-13T13:40:24.523Z,15.30
2019-01-13T13:42:53.011Z,15.60
2019-01-13T13:45:21.627Z,15.90
2019-01-13T13:47:50.194Z,15.80
2019-01-13T13:50:25.835Z,15.80
2019-01-13T13:55:22.848Z,15.30
2019-01-13T14:00:25.390Z,14.90
2019-01-13T14:02:54.008Z,14.80
2019-01-13T14:05:22.570Z,15.30
2019-01-13T14:10:25.243Z,15.10
2019-01-13T14:12:53.828Z,15.10
2019-01-13T14:15:22.386Z,15.30
2019-01-13T14:20:20.243Z,15.10
2019-01-13T14:22:48.879Z,15.40
2019-01-13T14:25:17.555Z,15.10
2019-01-13T14:30:28.228Z,15.10
2019-01-13T14:32:56.986Z,15.50
2019-01-13T14:35:25.556Z,15.60
2019-01-13T14:37:54.246Z,15.90
2019-01-13T14:42:53.435Z,15.70
2019-01-13T14:55:17.502Z,15.80
2019-01-13T14:57:46.147Z,16.00
2019-01-13T15:00:23.761Z,15.90
2019-01-13T15:02:52.413Z,15.80
2019-01-13T15:05:20.979Z,15.50
2019-01-13T15:07:49.658Z,15.60
2019-01-13T15:10:20.207Z,16.10
2019-01-13T15:15:17.169Z,15.70
2019-01-13T15:17:45.811Z,15.90
2019-01-13T15:20:18.941Z,16.50
2019-01-13T15:22:47.651Z,16.60
2019-01-13T15:25:19.041Z,16.00
2019-01-13T15:27:48.055Z,15.60
2019-01-13T15:32:49.591Z,15.90
2019-01-13T15:35:18.179Z,16.00
2019-01-13T15:37:46.793Z,16.70
2019-01-13T15:40:20.242Z,16.30
2019-01-13T15:45:17.133Z,15.50
2019-01-13T15:47:45.697Z,16.10
2019-01-13T15:52:44.891Z,16.00
2019-01-13T15:55:13.527Z,16.20
2019-01-13T15:57:42.169Z,15.70
2019-01-13T16:00:16.989Z,16.40
2019-01-13T16:02:45.618Z,16.70
2019-01-13T16:05:14.266Z,16.10
2019-01-13T16:17:38.709Z,15.60
2019-01-13T16:20:25.033Z,15.60
2019-01-13T16:22:53.691Z,15.80
2019-01-13T16:25:22.352Z,15.40
2019-01-13T16:27:50.982Z,15.60
2019-01-13T16:30:21.837Z,16.20
2019-01-13T16:35:19.036Z,15.90
2019-01-13T16:42:45.362Z,16.00
2019-01-13T16:45:15.535Z,16.20
2019-01-13T16:47:44.174Z,15.40
2019-01-13T16:50:15.086Z,16.00
2019-01-13T16:52:45.434Z,15.40
2019-01-13T16:55:14.005Z,15.30
2019-01-13T16:57:42.621Z,16.20
2019-01-13T17:00:19.869Z,15.50
2019-01-13T17:02:48.605Z,15.60
2019-01-13T17:05:18.423Z,15.20
2019-01-13T17:07:46.928Z,15.70
2019-01-13T17:10:18.207Z,15.70
2019-01-13T17:12:46.864Z,15.90
2019-01-13T17:15:17.331Z,15.60
2019-01-13T17:17:45.953Z,15.50
2019-01-13T17:20:17.096Z,16.00
2019-01-13T17:22:45.627Z,16.00
2019-01-13T17:27:44.195Z,15.40
2019-01-13T17:30:19.307Z,15.60
2019-01-13T17:32:48.644Z,16.20
2019-01-13T17:35:17.288Z,16.30
2019-01-13T17:37:45.918Z,16.50
2019-01-13T17:47:47.894Z,17.00
2019-01-13T17:50:18.532Z,15.80
2019-01-13T17:52:47.253Z,15.80
2019-01-13T17:55:18.360Z,15.40
2019-01-13T18:03:05.147Z,16.60
2019-01-13T18:05:33.803Z,16.70
2019-01-13T18:10:31.406Z,16.10
2019-01-13T18:13:21.349Z,15.50
2019-01-13T18:15:49.877Z,16.20
2019-01-13T18:20:46.742Z,15.60
2019-01-13T18:23:15.381Z,16.00
2019-01-13T18:25:44.035Z,16.00
2019-01-13T18:28:12.721Z,16.70
2019-01-13T18:33:12.951Z,16.30
2019-01-13T18:35:41.640Z,16.30
2019-01-13T18:38:12.285Z,16.80
2019-01-13T18:43:09.275Z,16.90
2019-01-13T18:45:38.262Z,17.10
2019-01-13T18:48:06.904Z,17.10
2019-01-13T18:50:35.586Z,17.30
2019-01-13T18:53:07.714Z,17.40
2019-01-13T18:55:36.290Z,16.70
2019-01-13T18:58:05.937Z,16.40
2019-01-13T19:00:34.573Z,16.50
2019-01-13T19:03:03.154Z,16.50
2019-01-13T19:05:31.887Z,16.40
2019-01-13T19:10:51.618Z,16.80
2019-01-13T19:18:20.092Z,17.60
2019-01-13T19:20:48.655Z,17.00
2019-01-13T19:23:17.279Z,17.40
2019-01-13T19:35:39.504Z,17.70
2019-01-13T19:40:36.480Z,17.10
2019-01-13T19:48:02.237Z,17.20
2019-01-13T19:53:00.475Z,16.90
2019-01-13T19:55:29.410Z,17.20
2019-01-13T20:00:31.466Z,16.80
2019-01-13T20:03:09.233Z,16.50
2019-01-13T20:05:37.872Z,16.60
2019-01-13T20:08:06.594Z,16.80
2019-01-13T20:10:35.225Z,16.90
2019-01-13T20:13:03.885Z,17.80
2019-01-13T20:15:38.220Z,18.40
2019-01-13T20:20:35.116Z,19.50
2019-01-13T20:28:00.497Z,18.30
2019-01-13T20:32:58.725Z,19.20
2019-01-13T20:35:27.381Z,18.20
2019-01-13T20:37:55.952Z,17.70
2019-01-13T20:45:29.759Z,16.70
2019-01-13T20:50:26.735Z,17.90
2019-01-13T20:55:23.714Z,19.40
2019-01-13T20:57:52.389Z,19.30
2019-01-13T21:00:22.886Z,20.40
2019-01-13T21:02:51.652Z,20.60
2019-01-13T21:05:26.658Z,21.10
2019-01-13T21:10:19.517Z,21.10
2019-01-13T21:12:48.101Z,21.70
2019-01-13T21:15:31.939Z,21.50
2019-01-13T21:18:00.579Z,21.60
2019-01-13T21:20:29.095Z,21.50
2019-01-13T21:25:28.078Z,21.50
2019-01-13T21:27:58.628Z,21.80
2019-01-13T21:30:31.941Z,21.50
2019-01-13T21:37:58.819Z,21.00
2019-01-13T21:42:55.783Z,20.30
2019-01-13T21:45:25.072Z,20.00
2019-01-13T21:47:53.727Z,20.50
2019-01-13T21:50:24.299Z,20.80
2019-01-13T21:52:53.025Z,19.50
2019-01-13T21:55:21.755Z,19.30
2019-01-13T21:57:50.333Z,19.20
2019-01-13T22:00:24.441Z,18.80
2019-01-13T22:02:53.076Z,18.20
2019-01-13T22:05:28.534Z,19.00
2019-01-13T22:12:54.112Z,18.30
2019-01-13T22:20:22.776Z,18.60
2019-01-13T22:22:52.184Z,19.00
2019-01-13T22:25:20.778Z,17.90
2019-01-13T22:30:22.497Z,18.00
2019-01-13T22:32:51.713Z,18.80
2019-01-13T22:35:20.358Z,18.40
2019-01-13T22:37:55.693Z,18.50
2019-01-13T22:40:19.698Z,18.40
2019-01-13T22:42:48.349Z,19.20
2019-01-13T22:45:19.070Z,19.30
2019-01-13T22:47:47.711Z,19.30
2019-01-13T22:50:18.424Z,18.90
2019-01-13T22:52:47.101Z,19.20
2019-01-13T22:57:44.023Z,18.70
2019-01-13T23:00:38.631Z,19.10
2019-01-13T23:03:07.271Z,19.10
2019-01-13T23:08:04.142Z,19.60
2019-01-13T23:10:32.754Z,19.70
2019-01-13T23:13:01.767Z,19.40
2019-01-13T23:15:30.488Z,19.70
2019-01-13T23:17:59.135Z,19.90
2019-01-13T23:20:27.787Z,20.10
2019-01-13T23:22:56.471Z,20.30
2019-01-13T23:25:25.044Z,20.50
2019-01-13T23:27:53.703Z,19.90
2019-01-13T23:30:22.318Z,19.60
2019-01-13T23:35:19.155Z,19.60
2019-01-13T23:37:47.850Z,19.40
2019-01-13T23:40:16.419Z,19.70
2019-01-13T23:42:44.975Z,19.30
2019-01-13T23:45:13.681Z,19.50
2019-01-13T23:50:11.039Z,19.60
2019-01-13T23:52:39.670Z,19.80
2019-01-13T23:55:08.240Z,19.90
2019-01-13T23:57:36.882Z,19.40
